createdAt,value
2023-02-21T00:00:58.842Z,10.40
2023-02-21T00:03:44.388Z,10.40
2023-02-21T00:06:29.796Z,10.30
2023-02-21T00:09:15.235Z,10.30
2023-02-21T00:12:02.964Z,10.20
2023-02-21T00:14:48.447Z,10.20
2023-02-21T00:17:34.142Z,10.10
2023-02-21T00:20:19.820Z,9.90
2023-02-21T00:23:15.244Z,9.80
2023-02-21T00:26:00.501Z,9.70
2023-02-21T00:28:47.251Z,9.60
2023-02-21T00:31:37.120Z,9.50
2023-02-21T00:34:22.497Z,9.40
2023-02-21T00:37:08.042Z,9.30
2023-02-21T00:39:53.347Z,9.20
2023-02-21T00:42:38.595Z,9.00
2023-02-21T00:45:26.580Z,8.90
2023-02-21T00:48:12.075Z,8.80
2023-02-21T00:50:57.556Z,8.80
2023-02-21T00:53:43.748Z,8.70
2023-02-21T00:56:29.668Z,8.70
2023-02-21T00:59:15.382Z,8.70
2023-02-21T01:02:02.309Z,8.60
2023-02-21T01:04:48.030Z,8.60
2023-02-21T01:07:33.576Z,8.50
2023-02-21T01:10:19.242Z,8.50
2023-02-21T01:13:04.489Z,8.50
2023-02-21T01:15:49.915Z,8.50
2023-02-21T01:18:36.500Z,8.40
2023-02-21T01:21:22.169Z,8.40
2023-02-21T01:24:07.869Z,8.30
2023-02-21T01:26:55.397Z,8.20
2023-02-21T01:29:42.804Z,8.20
2023-02-21T01:32:29.321Z,8.10
2023-02-21T01:35:16.058Z,8.10
2023-02-21T01:38:01.477Z,8.00
2023-02-21T01:40:47.053Z,8.00
2023-02-21T01:43:33.854Z,8.00
2023-02-21T01:46:19.825Z,8.00
2023-02-21T01:49:07.864Z,8.00
2023-02-21T01:51:58.412Z,8.00
2023-02-21T01:54:47.517Z,8.00
2023-02-21T01:57:33.926Z,8.00
2023-02-21T02:00:21.999Z,7.90
2023-02-21T02:03:13.545Z,7.90
2023-02-21T02:06:01.667Z,7.80
2023-02-21T02:08:49.980Z,7.80
2023-02-21T02:11:53.224Z,7.80
2023-02-21T02:14:53.356Z,7.80
2023-02-21T02:17:37.797Z,7.70
2023-02-21T02:20:48.612Z,7.70
2023-02-21T02:24:02.354Z,7.70
2023-02-21T02:27:01.606Z,7.70
2023-02-21T02:29:53.500Z,7.70
2023-02-21T02:32:37.748Z,7.60
2023-02-21T02:35:10.898Z,7.60
2023-02-21T02:37:49.121Z,7.50
2023-02-21T02:40:28.156Z,7.50
2023-02-21T02:43:07.964Z,7.50
2023-02-21T02:45:40.097Z,7.60
2023-02-21T02:48:14.104Z,7.60
2023-02-21T02:50:48.309Z,7.60
2023-02-21T02:53:20.270Z,7.60
2023-02-21T02:55:53.756Z,7.60
2023-02-21T02:58:24.396Z,7.60
2023-02-21T03:01:03.069Z,7.60
2023-02-21T03:03:53.152Z,7.60
2023-02-21T03:06:32.000Z,7.60
2023-02-21T03:09:09.510Z,7.60
2023-02-21T03:11:44.912Z,7.70
2023-02-21T03:14:17.489Z,7.70
2023-02-21T03:16:51.209Z,7.70
2023-02-21T03:19:24.023Z,7.80
2023-02-21T03:21:57.125Z,7.80
2023-02-21T03:24:27.228Z,7.90
2023-02-21T03:26:58.762Z,7.90
2023-02-21T03:29:48.850Z,7.90
2023-02-21T03:32:20.507Z,7.90
2023-02-21T03:34:48.960Z,8.00
2023-02-21T03:37:31.381Z,8.00
2023-02-21T03:39:59.584Z,8.10
2023-02-21T03:42:27.544Z,8.10
2023-02-21T03:44:55.702Z,8.20
2023-02-21T03:47:24.400Z,8.20
2023-02-21T03:49:53.082Z,8.20
2023-02-21T03:52:22.900Z,8.20
2023-02-21T03:54:51.294Z,8.20
2023-02-21T03:57:21.833Z,8.20
2023-02-21T03:59:51.303Z,8.20
2023-02-21T04:02:20.066Z,8.20
2023-02-21T04:04:49.245Z,8.10
2023-02-21T04:07:22.540Z,8.10
2023-02-21T04:09:51.609Z,8.00
2023-02-21T04:12:26.002Z,7.90
2023-02-21T04:14:56.410Z,7.90
2023-02-21T04:17:24.578Z,7.90
2023-02-21T04:19:53.338Z,7.90
2023-02-21T04:22:23.328Z,7.80
2023-02-21T04:24:51.316Z,7.70
2023-02-21T04:27:20.389Z,7.60
2023-02-21T04:29:54.064Z,7.50
2023-02-21T04:32:22.128Z,7.50
2023-02-21T04:34:50.398Z,7.50
2023-02-21T04:37:18.410Z,7.40
2023-02-21T04:39:47.837Z,7.40
2023-02-21T04:42:17.533Z,7.40
2023-02-21T04:44:58.293Z,7.30
2023-02-21T04:47:27.513Z,7.30
2023-02-21T04:49:55.361Z,7.30
2023-02-21T04:52:23.205Z,7.30
2023-02-21T04:54:52.592Z,7.20
2023-02-21T04:57:20.503Z,7.20
2023-02-21T04:59:48.559Z,7.20
2023-02-21T05:02:16.417Z,7.20
2023-02-21T05:04:44.508Z,7.20
2023-02-21T05:07:12.338Z,7.20
2023-02-21T05:09:40.163Z,7.20
2023-02-21T05:12:11.977Z,7.20
2023-02-21T05:14:40.115Z,7.10
2023-02-21T05:17:08.548Z,7.10
2023-02-21T05:19:36.410Z,7.10
2023-02-21T05:22:06.585Z,7.00
2023-02-21T05:24:35.318Z,7.00
2023-02-21T05:27:03.215Z,7.00
2023-02-21T05:29:32.445Z,7.00
2023-02-21T05:32:00.325Z,7.00
2023-02-21T05:34:28.243Z,7.00
2023-02-21T05:37:21.046Z,7.10
2023-02-21T05:39:49.056Z,7.10
2023-02-21T05:42:17.027Z,7.10
2023-02-21T05:44:48.980Z,7.20
2023-02-21T05:47:17.562Z,7.30
2023-02-21T05:49:45.814Z,7.30
2023-02-21T05:52:15.324Z,7.40
2023-02-21T05:54:43.353Z,7.40
2023-02-21T05:57:11.670Z,7.40
2023-02-21T05:59:39.695Z,7.40
2023-02-21T06:02:09.023Z,7.50
2023-02-21T06:04:38.056Z,7.50
2023-02-21T06:07:05.943Z,7.60
2023-02-21T06:09:33.839Z,7.60
2023-02-21T06:12:01.696Z,7.60
2023-02-21T06:14:29.541Z,7.60
2023-02-21T06:16:57.412Z,7.60
2023-02-21T06:19:26.737Z,7.60
2023-02-21T06:21:54.555Z,7.60
2023-02-21T06:24:23.492Z,7.60
2023-02-21T06:26:51.471Z,7.60
2023-02-21T06:29:19.406Z,7.60
2023-02-21T06:31:47.371Z,7.60
2023-02-21T06:34:15.360Z,7.60
2023-02-21T06:36:44.685Z,7.60
2023-02-21T06:39:13.474Z,7.60
2023-02-21T06:41:41.346Z,7.60
2023-02-21T06:44:09.352Z,7.60
2023-02-21T06:46:38.176Z,7.60
2023-02-21T06:49:06.539Z,7.60
2023-02-21T06:51:36.341Z,7.50
2023-02-21T06:54:05.918Z,7.50
2023-02-21T06:56:34.016Z,7.50
2023-02-21T06:59:01.920Z,7.50
2023-02-21T07:01:30.899Z,7.50
2023-02-21T07:04:00.170Z,7.50
2023-02-21T07:06:29.802Z,7.50
2023-02-21T07:08:59.113Z,7.50
2023-02-21T07:11:29.666Z,7.50
2023-02-21T07:13:59.341Z,7.60
2023-02-21T07:16:27.457Z,7.60
2023-02-21T07:18:55.443Z,7.60
2023-02-21T07:21:23.774Z,7.60
2023-02-21T07:23:51.621Z,7.60
2023-02-21T07:26:19.639Z,7.60
2023-02-21T07:28:50.546Z,7.70
2023-02-21T07:31:20.677Z,7.70
2023-02-21T07:33:48.841Z,7.70
2023-02-21T07:36:16.943Z,7.80
2023-02-21T07:38:45.035Z,7.80
2023-02-21T07:41:15.359Z,7.90
2023-02-21T07:43:43.500Z,7.90
2023-02-21T07:46:13.987Z,7.90
2023-02-21T07:48:42.011Z,8.00
2023-02-21T07:51:11.249Z,8.00
2023-02-21T07:53:39.131Z,8.10
2023-02-21T07:56:08.612Z,8.10
2023-02-21T07:58:38.085Z,8.20
2023-02-21T08:01:09.384Z,8.20
2023-02-21T08:03:40.796Z,8.30
2023-02-21T08:06:11.129Z,8.30
2023-02-21T08:08:39.217Z,8.40
2023-02-21T08:11:07.476Z,8.40
2023-02-21T08:13:35.328Z,8.50
2023-02-21T08:16:03.282Z,8.50
2023-02-21T08:18:31.237Z,8.60
2023-02-21T08:21:00.450Z,8.70
2023-02-21T08:23:28.654Z,8.70
2023-02-21T08:25:56.519Z,8.80
2023-02-21T08:28:24.376Z,8.80
2023-02-21T08:30:53.877Z,8.90
2023-02-21T08:33:22.104Z,9.00
2023-02-21T08:35:49.994Z,9.00
2023-02-21T08:38:20.955Z,9.10
2023-02-21T08:40:48.870Z,9.20
2023-02-21T08:43:17.870Z,9.30
2023-02-21T08:45:45.907Z,9.30
2023-02-21T08:48:13.903Z,9.40
2023-02-21T08:50:41.935Z,9.40
2023-02-21T08:53:11.041Z,9.50
2023-02-21T08:55:40.527Z,9.60
2023-02-21T08:58:08.412Z,9.60
2023-02-21T09:00:36.264Z,9.70
2023-02-21T09:03:04.148Z,9.70
2023-02-21T09:05:32.993Z,9.80
2023-02-21T09:08:02.356Z,9.80
2023-02-21T09:10:33.912Z,9.90
2023-02-21T09:13:04.622Z,9.90
2023-02-21T09:15:32.750Z,10.00
2023-02-21T09:18:01.157Z,10.00
2023-02-21T09:20:29.703Z,10.10
2023-02-21T09:22:57.720Z,10.10
2023-02-21T09:25:27.231Z,10.20
2023-02-21T09:27:56.215Z,10.20
2023-02-21T09:30:27.458Z,10.30
2023-02-21T09:32:56.192Z,10.30
2023-02-21T09:35:24.454Z,10.30
2023-02-21T09:37:53.440Z,10.40
2023-02-21T09:40:33.579Z,10.40
2023-02-21T09:43:03.484Z,10.40
2023-02-21T09:45:36.138Z,10.40
2023-02-21T09:48:09.190Z,10.40
2023-02-21T09:50:43.030Z,10.50
2023-02-21T09:53:15.773Z,10.50
2023-02-21T09:55:44.419Z,10.60
2023-02-21T09:58:14.557Z,10.60
2023-02-21T10:00:46.609Z,10.70
2023-02-21T10:03:44.207Z,10.70
2023-02-21T10:06:22.623Z,10.90
2023-02-21T10:08:57.825Z,11.10
2023-02-21T10:11:46.571Z,11.30
2023-02-21T10:14:24.373Z,11.50
2023-02-21T10:17:00.162Z,11.60
2023-02-21T10:19:32.840Z,11.80
2023-02-21T10:22:04.530Z,11.90
2023-02-21T10:24:32.479Z,12.00
2023-02-21T10:27:03.769Z,12.10
2023-02-21T10:29:40.481Z,12.20
2023-02-21T10:32:10.273Z,12.30
2023-02-21T10:34:38.540Z,12.40
2023-02-21T10:37:25.146Z,12.50
2023-02-21T10:39:56.026Z,12.60
2023-02-21T10:42:31.780Z,12.70
2023-02-21T10:45:01.821Z,12.80
2023-02-21T10:47:45.211Z,12.80
2023-02-21T10:50:14.182Z,12.90
2023-02-21T10:52:50.163Z,13.00
2023-02-21T10:55:31.916Z,13.00
2023-02-21T10:58:08.717Z,13.10
2023-02-21T11:00:39.071Z,13.10
2023-02-21T11:03:21.947Z,13.20
2023-02-21T11:05:51.339Z,13.20
2023-02-21T11:08:35.800Z,13.20
2023-02-21T11:11:03.952Z,13.20
2023-02-21T11:13:33.375Z,13.30
2023-02-21T11:16:12.305Z,13.20
2023-02-21T11:18:41.624Z,13.30
2023-02-21T11:21:15.710Z,13.30
2023-02-21T11:23:48.157Z,13.30
2023-02-21T11:26:18.592Z,13.30
2023-02-21T11:28:48.386Z,13.30
2023-02-21T11:31:22.398Z,13.30
2023-02-21T11:33:58.129Z,13.40
2023-02-21T11:36:30.320Z,13.40
2023-02-21T11:39:05.384Z,13.50
2023-02-21T11:41:39.558Z,13.40
2023-02-21T11:44:27.693Z,13.40
2023-02-21T11:47:09.640Z,13.40
2023-02-21T11:49:50.554Z,13.40
2023-02-21T11:52:25.449Z,13.50
2023-02-21T11:54:53.565Z,13.50
2023-02-21T11:57:27.577Z,13.60
2023-02-21T12:00:05.749Z,13.60
2023-02-21T12:02:59.903Z,13.60
2023-02-21T12:05:48.926Z,13.60
2023-02-21T12:08:47.204Z,13.60
2023-02-21T12:11:32.929Z,13.70
2023-02-21T12:14:12.760Z,13.70
2023-02-21T12:16:52.903Z,13.70
2023-02-21T12:19:46.947Z,13.80
2023-02-21T12:22:29.842Z,13.80
2023-02-21T12:25:09.690Z,13.80
2023-02-21T12:27:50.305Z,13.80
2023-02-21T12:30:27.929Z,13.90
2023-02-21T12:33:04.541Z,13.90
2023-02-21T12:35:54.286Z,14.00
2023-02-21T12:38:31.657Z,14.00
2023-02-21T12:41:13.185Z,14.00
2023-02-21T12:43:54.292Z,14.00
2023-02-21T12:46:28.794Z,14.00
2023-02-21T12:49:04.496Z,14.10
2023-02-21T12:51:42.012Z,14.10
2023-02-21T12:54:16.148Z,14.10
2023-02-21T12:56:49.538Z,14.10
2023-02-21T12:59:22.443Z,14.20
2023-02-21T13:01:55.406Z,14.20
2023-02-21T13:04:35.695Z,14.20
2023-02-21T13:07:11.149Z,14.20
2023-02-21T13:09:48.726Z,14.30
2023-02-21T13:12:21.091Z,14.30
2023-02-21T13:14:52.734Z,14.40
2023-02-21T13:17:21.216Z,14.40
2023-02-21T13:19:52.180Z,14.40
2023-02-21T13:22:28.653Z,14.40
2023-02-21T13:25:26.835Z,14.40
2023-02-21T13:28:03.119Z,14.40
2023-02-21T13:30:40.548Z,14.50
2023-02-21T13:33:22.463Z,14.50
2023-02-21T13:35:51.497Z,14.50
2023-02-21T13:38:21.082Z,14.50
2023-02-21T13:40:55.676Z,14.60
2023-02-21T13:43:26.392Z,14.60
2023-02-21T13:45:54.835Z,14.50
2023-02-21T13:48:27.013Z,14.50
2023-02-21T13:50:56.704Z,14.50
2023-02-21T13:53:33.085Z,14.60
2023-02-21T13:56:20.444Z,14.50
2023-02-21T13:58:49.433Z,14.60
2023-02-21T14:01:41.546Z,14.60
2023-02-21T14:04:51.841Z,14.60
2023-02-21T14:07:40.637Z,14.60
2023-02-21T14:10:20.575Z,14.70
2023-02-21T14:12:56.427Z,14.70
2023-02-21T14:15:24.551Z,14.70
2023-02-21T14:17:54.370Z,14.80
2023-02-21T14:20:24.546Z,14.80
2023-02-21T14:22:54.332Z,14.80
2023-02-21T14:25:25.960Z,14.80
2023-02-21T14:27:55.357Z,14.80
2023-02-21T14:30:33.020Z,14.80
2023-02-21T14:33:22.216Z,14.80
2023-02-21T14:35:59.319Z,14.90
2023-02-21T14:38:30.725Z,14.90
2023-02-21T14:41:06.811Z,14.90
2023-02-21T14:44:07.457Z,14.90
2023-02-21T14:47:05.393Z,14.90
2023-02-21T14:49:58.054Z,14.90
2023-02-21T14:52:54.325Z,14.90
2023-02-21T14:56:05.711Z,14.90
2023-02-21T14:58:56.038Z,14.90
2023-02-21T15:01:43.760Z,14.90
2023-02-21T15:04:19.358Z,14.90
2023-02-21T15:06:58.934Z,14.90
2023-02-21T15:09:27.124Z,14.90
2023-02-21T15:11:56.592Z,14.90
2023-02-21T15:14:26.600Z,14.90
2023-02-21T15:16:59.616Z,14.90
2023-02-21T15:19:31.360Z,14.90
2023-02-21T15:22:25.737Z,14.90
2023-02-21T15:25:03.160Z,14.90
2023-02-21T15:27:31.071Z,14.90
2023-02-21T15:30:08.721Z,14.90
2023-02-21T15:32:39.018Z,14.90
2023-02-21T15:35:09.388Z,14.80
2023-02-21T15:37:40.003Z,14.80
2023-02-21T15:40:16.160Z,14.80
2023-02-21T15:42:45.512Z,14.80
2023-02-21T15:45:20.138Z,14.80
2023-02-21T15:47:50.112Z,14.70
2023-02-21T15:50:24.519Z,14.80
2023-02-21T15:52:53.471Z,14.80
2023-02-21T15:55:39.355Z,14.80
2023-02-21T15:58:19.452Z,14.70
2023-02-21T16:00:48.854Z,14.70
2023-02-21T16:03:33.747Z,14.70
2023-02-21T16:06:18.294Z,14.70
2023-02-21T16:09:01.669Z,14.60
2023-02-21T16:11:45.893Z,14.60
2023-02-21T16:14:19.837Z,14.60
2023-02-21T16:16:53.682Z,14.60
2023-02-21T16:19:24.869Z,14.50
2023-02-21T16:22:12.704Z,14.50
2023-02-21T16:24:41.703Z,14.40
2023-02-21T16:27:12.869Z,14.40
2023-02-21T16:29:40.798Z,14.30
2023-02-21T16:32:17.999Z,14.30
2023-02-21T16:34:47.973Z,14.20
2023-02-21T16:37:17.932Z,14.10
2023-02-21T16:39:45.826Z,14.10
2023-02-21T16:42:18.516Z,14.10
2023-02-21T16:44:47.904Z,14.00
2023-02-21T16:47:16.679Z,13.90
2023-02-21T16:49:45.165Z,13.80
2023-02-21T16:52:15.712Z,13.80
2023-02-21T16:54:43.565Z,13.70
2023-02-21T16:57:11.963Z,13.60
2023-02-21T16:59:39.877Z,13.50
2023-02-21T17:02:14.211Z,13.50
2023-02-21T17:04:42.294Z,13.40
2023-02-21T17:07:11.693Z,13.40
2023-02-21T17:09:42.787Z,13.30
2023-02-21T17:12:13.712Z,13.20
2023-02-21T17:14:41.616Z,13.20
2023-02-21T17:17:09.494Z,13.10
2023-02-21T17:19:37.516Z,13.00
2023-02-21T17:22:05.388Z,13.00
2023-02-21T17:24:33.562Z,12.90
2023-02-21T17:27:02.799Z,12.80
2023-02-21T17:29:38.031Z,12.70
2023-02-21T17:32:07.167Z,12.60
2023-02-21T17:34:35.509Z,12.50
2023-02-21T17:37:04.325Z,12.40
2023-02-21T17:39:32.358Z,12.40
2023-02-21T17:42:00.213Z,12.30
2023-02-21T17:44:29.471Z,12.20
2023-02-21T17:46:58.597Z,12.20
2023-02-21T17:49:28.369Z,12.10
2023-02-21T17:51:56.954Z,12.00
2023-02-21T17:54:26.380Z,12.00
2023-02-21T17:56:54.389Z,11.90
2023-02-21T17:59:22.799Z,11.90
2023-02-21T18:01:54.618Z,11.80
2023-02-21T18:04:24.704Z,11.70
2023-02-21T18:06:52.690Z,11.70
2023-02-21T18:09:21.071Z,11.70
2023-02-21T18:11:50.408Z,11.60
2023-02-21T18:14:18.736Z,11.60
2023-02-21T18:16:46.630Z,11.50
2023-02-21T18:19:16.738Z,11.40
2023-02-21T18:21:46.787Z,11.30
2023-02-21T18:24:15.504Z,11.30
2023-02-21T18:26:44.021Z,11.30
2023-02-21T18:29:12.030Z,11.20
2023-02-21T18:31:39.922Z,11.20
2023-02-21T18:34:07.851Z,11.20
2023-02-21T18:36:40.806Z,11.20
2023-02-21T18:39:08.858Z,11.20
2023-02-21T18:41:37.725Z,11.20
2023-02-21T18:44:05.898Z,11.20
2023-02-21T18:46:33.768Z,11.20
2023-02-21T18:49:01.616Z,11.20
2023-02-21T18:51:29.735Z,11.20
2023-02-21T18:53:58.901Z,11.20
2023-02-21T18:56:26.810Z,11.20
2023-02-21T18:58:54.733Z,11.10
2023-02-21T19:01:26.068Z,11.10
2023-02-21T19:03:54.725Z,11.00
2023-02-21T19:06:24.951Z,10.90
2023-02-21T19:08:54.650Z,10.90
2023-02-21T19:11:24.135Z,10.90
2023-02-21T19:13:54.045Z,10.90
2023-02-21T19:16:22.890Z,10.80
2023-02-21T19:18:51.475Z,10.80
2023-02-21T19:21:19.435Z,10.70
2023-02-21T19:23:47.299Z,10.60
2023-02-21T19:26:15.253Z,10.60
2023-02-21T19:28:44.713Z,10.50
2023-02-21T19:31:14.436Z,10.50
2023-02-21T19:33:45.154Z,10.50
2023-02-21T19:36:13.690Z,10.40
2023-02-21T19:38:41.627Z,10.40
2023-02-21T19:41:10.165Z,10.30
2023-02-21T19:43:38.044Z,10.20
2023-02-21T19:46:07.558Z,10.20
2023-02-21T19:48:35.457Z,10.20
2023-02-21T19:51:03.452Z,10.10
2023-02-21T19:53:31.320Z,10.10
2023-02-21T19:56:02.460Z,10.10
2023-02-21T19:58:30.296Z,10.10
2023-02-21T20:00:58.362Z,10.10
2023-02-21T20:03:27.546Z,10.00
2023-02-21T20:05:56.492Z,10.00
2023-02-21T20:08:24.347Z,10.00
2023-02-21T20:10:52.438Z,10.00
2023-02-21T20:13:21.684Z,10.00
2023-02-21T20:15:50.829Z,9.90
2023-02-21T20:18:18.932Z,9.90
2023-02-21T20:20:49.589Z,9.90
2023-02-21T20:23:18.184Z,9.80
2023-02-21T20:25:46.182Z,9.70
2023-02-21T20:28:14.173Z,9.70
2023-02-21T20:30:42.233Z,9.60
2023-02-21T20:33:11.226Z,9.50
2023-02-21T20:35:39.098Z,9.50
2023-02-21T20:38:09.447Z,9.50
2023-02-21T20:40:37.760Z,9.50
2023-02-21T20:43:05.735Z,9.50
2023-02-21T20:45:33.634Z,9.50
2023-02-21T20:48:01.822Z,9.60
2023-02-21T20:50:30.517Z,9.60
2023-02-21T20:52:59.412Z,9.60
2023-02-21T20:55:28.595Z,9.70
2023-02-21T20:57:56.728Z,9.70
2023-02-21T21:00:24.960Z,9.60
2023-02-21T21:02:53.435Z,9.60
2023-02-21T21:05:21.366Z,9.60
2023-02-21T21:07:49.335Z,9.60
2023-02-21T21:10:28.530Z,9.60
2023-02-21T21:12:57.381Z,9.60
2023-02-21T21:15:25.787Z,9.60
2023-02-21T21:17:59.670Z,9.50
2023-02-21T21:20:28.101Z,9.40
2023-02-21T21:22:56.199Z,9.40
2023-02-21T21:25:28.401Z,9.30
2023-02-21T21:27:56.289Z,9.20
2023-02-21T21:30:24.878Z,9.10
2023-02-21T21:32:52.813Z,9.10
2023-02-21T21:35:20.867Z,9.00
2023-02-21T21:37:50.660Z,9.00
2023-02-21T21:40:18.991Z,9.00
2023-02-21T21:42:50.390Z,9.00
2023-02-21T21:45:22.636Z,9.00
2023-02-21T21:47:54.502Z,9.00
2023-02-21T21:50:23.287Z,9.00
2023-02-21T21:52:53.102Z,9.00
2023-02-21T21:55:22.833Z,9.00
2023-02-21T21:57:54.242Z,9.00
2023-02-21T22:00:24.339Z,9.00
2023-02-21T22:02:57.088Z,9.00
2023-02-21T22:05:25.978Z,9.00
2023-02-21T22:07:54.055Z,9.00
2023-02-21T22:10:24.143Z,9.00
2023-02-21T22:12:54.531Z,9.00
2023-02-21T22:15:24.840Z,9.00
2023-02-21T22:17:53.369Z,9.00
2023-02-21T22:20:28.289Z,9.00
2023-02-21T22:22:58.604Z,9.00
2023-02-21T22:25:30.565Z,9.00
2023-02-21T22:28:03.747Z,9.00
2023-02-21T22:30:31.942Z,9.00
2023-02-21T22:33:00.978Z,8.90
2023-02-21T22:35:29.000Z,8.90
2023-02-21T22:38:01.968Z,8.90
2023-02-21T22:40:35.511Z,8.90
2023-02-21T22:43:08.913Z,8.80
2023-02-21T22:45:37.884Z,8.70
2023-02-21T22:48:07.407Z,8.60
2023-02-21T22:50:37.162Z,8.60
2023-02-21T22:53:08.298Z,8.50
2023-02-21T22:55:37.981Z,8.50
2023-02-21T22:58:09.431Z,8.40
2023-02-21T23:00:38.670Z,8.40
2023-02-21T23:03:12.855Z,8.40
2023-02-21T23:05:43.632Z,8.30
2023-02-21T23:08:13.684Z,8.30
2023-02-21T23:10:42.400Z,8.30
2023-02-21T23:13:14.575Z,8.30
2023-02-21T23:15:43.384Z,8.20
2023-02-21T23:18:12.388Z,8.20
2023-02-21T23:20:44.769Z,8.10
2023-02-21T23:23:14.077Z,8.10
2023-02-21T23:25:41.998Z,8.20
2023-02-21T23:28:12.916Z,8.20
2023-02-21T23:30:42.302Z,8.20
2023-02-21T23:33:14.447Z,8.20
2023-02-21T23:35:43.601Z,8.10
2023-02-21T23:38:16.299Z,8.10
2023-02-21T23:40:45.158Z,8.10
2023-02-21T23:43:16.804Z,8.10
2023-02-21T23:45:48.198Z,8.00
2023-02-21T23:48:16.681Z,7.90
2023-02-21T23:50:48.070Z,7.90
2023-02-21T23:53:18.846Z,7.80
2023-02-21T23:55:48.265Z,7.80
2023-02-21T23:58:19.502Z,7.80
